sensor_id;sensor_type;location;lat;lon;timestamp;pressure;altitude;pressure_sealevel;temperature;humidity
78117;BME280;69042;59.120;37.904;2023-05-10T00:01:27;101020.84;;;11.95;50.64
78117;BME280;69042;59.120;37.904;2023-05-10T00:03:53;101020.09;;;11.92;50.94
78117;BME280;69042;59.120;37.904;2023-05-10T00:06:20;101023.69;;;11.89;51.06
78117;BME280;69042;59.120;37.904;2023-05-10T00:08:46;101027.19;;;11.88;51.27
78117;BME280;69042;59.120;37.904;2023-05-10T00:11:12;101025.47;;;11.87;51.49
78117;BME280;69042;59.120;37.904;2023-05-10T00:13:38;101027.19;;;11.86;51.91
78117;BME280;69042;59.120;37.904;2023-05-10T00:16:05;101024.72;;;11.82;51.96
78117;BME280;69042;59.120;37.904;2023-05-10T00:18:31;101030.88;;;11.81;52.19
78117;BME280;69042;59.120;37.904;2023-05-10T00:20:59;101030.94;;;11.79;52.33
78117;BME280;69042;59.120;37.904;2023-05-10T00:23:26;101023.19;;;11.76;52.71
78117;BME280;69042;59.120;37.904;2023-05-10T00:25:53;101022.25;;;11.77;52.89
78117;BME280;69042;59.120;37.904;2023-05-10T00:28:19;101023.16;;;11.78;52.86
78117;BME280;69042;59.120;37.904;2023-05-10T00:30:46;101025.69;;;11.79;53.18
78117;BME280;69042;59.120;37.904;2023-05-10T00:33:12;101028.25;;;11.81;53.29
78117;BME280;69042;59.120;37.904;2023-05-10T00:35:38;101030.94;;;11.79;53.26
78117;BME280;69042;59.120;37.904;2023-05-10T00:38:05;101024.88;;;11.77;53.56
78117;BME280;69042;59.120;37.904;2023-05-10T00:40:31;101025.03;;;11.73;53.92
78117;BME280;69042;59.120;37.904;2023-05-10T00:43:02;101027.78;;;11.68;54.31
78117;BME280;69042;59.120;37.904;2023-05-10T00:45:31;101027.00;;;11.66;54.44
78117;BME280;69042;59.120;37.904;2023-05-10T00:47:59;101034.94;;;11.63;54.41
78117;BME280;69042;59.120;37.904;2023-05-10T00:50:26;101030.69;;;11.60;54.31
78117;BME280;69042;59.120;37.904;2023-05-10T00:52:53;101035.09;;;11.58;54.47
78117;BME280;69042;59.120;37.904;2023-05-10T00:55:20;101035.06;;;11.60;54.51
78117;BME280;69042;59.120;37.904;2023-05-10T00:57:47;101039.34;;;11.62;54.32
78117;BME280;69042;59.120;37.904;2023-05-10T01:00:14;101035.75;;;11.65;54.38
78117;BME280;69042;59.120;37.904;2023-05-10T01:02:45;101033.91;;;11.69;54.37
78117;BME280;69042;59.120;37.904;2023-05-10T01:05:12;101037.28;;;11.72;54.21
78117;BME280;69042;59.120;37.904;2023-05-10T01:07:39;101033.69;;;11.75;54.48
78117;BME280;69042;59.120;37.904;2023-05-10T01:10:07;101027.66;;;11.73;54.43
78117;BME280;69042;59.120;37.904;2023-05-10T01:12:42;101039.94;;;11.71;54.66
78117;BME280;69042;59.120;37.904;2023-05-10T01:15:12;101029.69;;;11.64;54.61
78117;BME280;69042;59.120;37.904;2023-05-10T01:17:43;101026.41;;;11.58;54.88
78117;BME280;69042;59.120;37.904;2023-05-10T01:20:11;101025.72;;;11.51;55.13
78117;BME280;69042;59.120;37.904;2023-05-10T01:25:35;101028.63;;;11.42;55.97
78117;BME280;69042;59.120;37.904;2023-05-10T01:31:06;101031.25;;;11.42;56.55
78117;BME280;69042;59.120;37.904;2023-05-10T01:36:58;101030.25;;;11.46;56.75
78117;BME280;69042;59.120;37.904;2023-05-10T01:39:54;101032.78;;;11.49;56.87
78117;BME280;69042;59.120;37.904;2023-05-10T01:42:24;101030.00;;;11.54;56.28
78117;BME280;69042;59.120;37.904;2023-05-10T01:47:43;101031.38;;;11.65;55.49
78117;BME280;69042;59.120;37.904;2023-05-10T01:50:17;101033.75;;;11.73;55.13
78117;BME280;69042;59.120;37.904;2023-05-10T01:52:49;101036.16;;;11.79;54.67
78117;BME280;69042;59.120;37.904;2023-05-10T01:55:21;101030.66;;;11.88;54.74
78117;BME280;69042;59.120;37.904;2023-05-10T01:57:55;101032.13;;;11.97;54.45
78117;BME280;69042;59.120;37.904;2023-05-10T02:00:23;101027.53;;;12.04;54.60
78117;BME280;69042;59.120;37.904;2023-05-10T02:02:52;101033.53;;;12.07;54.86
78117;BME280;69042;59.120;37.904;2023-05-10T02:05:20;101026.56;;;12.06;55.13
78117;BME280;69042;59.120;37.904;2023-05-10T02:07:47;101026.72;;;12.02;55.60
78117;BME280;69042;59.120;37.904;2023-05-10T02:10:15;101025.22;;;11.95;56.17
78117;BME280;69042;59.120;37.904;2023-05-10T02:12:43;101030.66;;;11.88;56.67
78117;BME280;69042;59.120;37.904;2023-05-10T02:15:17;101022.91;;;11.84;57.04
78117;BME280;69042;59.120;37.904;2023-05-10T02:17:46;101025.69;;;11.79;57.10
78117;BME280;69042;59.120;37.904;2023-05-10T02:20:14;101019.72;;;11.76;57.30
78117;BME280;69042;59.120;37.904;2023-05-10T02:22:43;101023.28;;;11.73;57.56
78117;BME280;69042;59.120;37.904;2023-05-10T02:25:11;101024.06;;;11.75;57.73
78117;BME280;69042;59.120;37.904;2023-05-10T02:27:38;101028.41;;;11.76;57.60
78117;BME280;69042;59.120;37.904;2023-05-10T02:30:08;101026.66;;;11.77;57.50
78117;BME280;69042;59.120;37.904;2023-05-10T02:32:35;101026.69;;;11.75;57.71
78117;BME280;69042;59.120;37.904;2023-05-10T02:35:03;101025.69;;;11.79;57.28
78117;BME280;69042;59.120;37.904;2023-05-10T02:37:30;101022.03;;;11.85;56.38
78117;BME280;69042;59.120;37.904;2023-05-10T02:39:56;101026.19;;;11.92;55.76
78117;BME280;69042;59.120;37.904;2023-05-10T02:42:27;101023.31;;;12.00;55.40
78117;BME280;69042;59.120;37.904;2023-05-10T02:44:59;101017.88;;;12.06;54.98
78117;BME280;69042;59.120;37.904;2023-05-10T02:47:27;101017.66;;;12.12;54.78
78117;BME280;69042;59.120;37.904;2023-05-10T02:49:54;101013.88;;;12.21;54.77
78117;BME280;69042;59.120;37.904;2023-05-10T02:52:25;101021.41;;;12.30;54.19
78117;BME280;69042;59.120;37.904;2023-05-10T02:54:55;101014.13;;;12.38;53.64
78117;BME280;69042;59.120;37.904;2023-05-10T02:57:31;101014.75;;;12.45;53.24
78117;BME280;69042;59.120;37.904;2023-05-10T02:59:58;101012.84;;;12.50;53.09
78117;BME280;69042;59.120;37.904;2023-05-10T03:02:26;101018.91;;;12.52;52.41
78117;BME280;69042;59.120;37.904;2023-05-10T03:04:52;101014.47;;;12.54;52.29
78117;BME280;69042;59.120;37.904;2023-05-10T03:07:20;101016.97;;;12.57;52.00
78117;BME280;69042;59.120;37.904;2023-05-10T03:09:48;101005.47;;;12.61;51.78
78117;BME280;69042;59.120;37.904;2023-05-10T03:15:03;101011.38;;;12.66;52.24
78117;BME280;69042;59.120;37.904;2023-05-10T03:20:10;101014.00;;;12.66;52.39
78117;BME280;69042;59.120;37.904;2023-05-10T03:22:49;101005.22;;;12.67;52.63
78117;BME280;69042;59.120;37.904;2023-05-10T03:25:16;101007.75;;;12.70;52.63
78117;BME280;69042;59.120;37.904;2023-05-10T03:27:44;101012.06;;;12.71;52.56
78117;BME280;69042;59.120;37.904;2023-05-10T03:30:12;101015.41;;;12.77;52.27
78117;BME280;69042;59.120;37.904;2023-05-10T03:32:38;101012.66;;;12.80;52.32
78117;BME280;69042;59.120;37.904;2023-05-10T03:35:12;101019.38;;;12.87;52.51
78117;BME280;69042;59.120;37.904;2023-05-10T03:37:39;101019.06;;;12.95;52.41
78117;BME280;69042;59.120;37.904;2023-05-10T03:40:05;101013.78;;;12.96;51.96
78117;BME280;69042;59.120;37.904;2023-05-10T03:42:33;101019.88;;;12.97;51.63
78117;BME280;69042;59.120;37.904;2023-05-10T03:45:00;101016.41;;;12.96;52.08
78117;BME280;69042;59.120;37.904;2023-05-10T03:47:26;101029.53;;;12.96;51.87
78117;BME280;69042;59.120;37.904;2023-05-10T03:49:52;101026.41;;;12.86;51.91
78117;BME280;69042;59.120;37.904;2023-05-10T03:52:18;101029.44;;;12.74;52.29
78117;BME280;69042;59.120;37.904;2023-05-10T03:54:44;101035.91;;;12.65;52.43
78117;BME280;69042;59.120;37.904;2023-05-10T03:57:10;101037.00;;;12.58;52.68
78117;BME280;69042;59.120;37.904;2023-05-10T03:59:36;101029.38;;;12.52;52.60
78117;BME280;69042;59.120;37.904;2023-05-10T04:02:02;101026.94;;;12.47;52.48
78117;BME280;69042;59.120;37.904;2023-05-10T04:04:29;101028.78;;;12.44;52.60
78117;BME280;69042;59.120;37.904;2023-05-10T04:06:55;101035.69;;;12.46;52.76
78117;BME280;69042;59.120;37.904;2023-05-10T04:09:21;101036.38;;;12.52;52.41
78117;BME280;69042;59.120;37.904;2023-05-10T04:11:47;101028.44;;;12.55;51.80
78117;BME280;69042;59.120;37.904;2023-05-10T04:14:13;101036.84;;;12.63;52.20
78117;BME280;69042;59.120;37.904;2023-05-10T04:16:39;101033.84;;;12.74;51.91
78117;BME280;69042;59.120;37.904;2023-05-10T04:19:05;101035.00;;;12.90;51.88
78117;BME280;69042;59.120;37.904;2023-05-10T04:21:32;101032.59;;;13.07;51.59
78117;BME280;69042;59.120;37.904;2023-05-10T04:23:58;101036.34;;;13.24;51.24
78117;BME280;69042;59.120;37.904;2023-05-10T04:26:24;101035.00;;;13.37;51.11
78117;BME280;69042;59.120;37.904;2023-05-10T04:28:51;101035.25;;;13.53;50.90
78117;BME280;69042;59.120;37.904;2023-05-10T04:31:17;101032.84;;;13.69;50.92
78117;BME280;69042;59.120;37.904;2023-05-10T04:33:43;101036.59;;;13.85;50.76
78117;BME280;69042;59.120;37.904;2023-05-10T04:36:09;101032.47;;;14.00;50.59
78117;BME280;69042;59.120;37.904;2023-05-10T04:38:35;101030.13;;;14.14;50.48
78117;BME280;69042;59.120;37.904;2023-05-10T04:41:09;101033.00;;;14.29;49.91
78117;BME280;69042;59.120;37.904;2023-05-10T04:43:35;101037.66;;;14.43;49.41
78117;BME280;69042;59.120;37.904;2023-05-10T04:46:02;101038.16;;;14.52;49.14
78117;BME280;69042;59.120;37.904;2023-05-10T04:48:28;101040.31;;;14.63;48.61
78117;BME280;69042;59.120;37.904;2023-05-10T04:50:55;101030.16;;;14.74;48.03
78117;BME280;69042;59.120;37.904;2023-05-10T04:53:21;101029.63;;;14.87;47.60
78117;BME280;69042;59.120;37.904;2023-05-10T04:55:47;101036.03;;;15.00;47.25
78117;BME280;69042;59.120;37.904;2023-05-10T04:58:13;101026.88;;;15.09;47.00
78117;BME280;69042;59.120;37.904;2023-05-10T05:00:40;101031.00;;;15.14;46.68
78117;BME280;69042;59.120;37.904;2023-05-10T05:03:06;101029.94;;;15.18;46.42
78117;BME280;69042;59.120;37.904;2023-05-10T05:05:32;101030.72;;;15.20;46.40
78117;BME280;69042;59.120;37.904;2023-05-10T05:07:58;101032.13;;;15.28;46.16
78117;BME280;69042;59.120;37.904;2023-05-10T05:10:24;101030.06;;;15.34;45.97
78117;BME280;69042;59.120;37.904;2023-05-10T05:12:50;101025.34;;;15.41;45.86
78117;BME280;69042;59.120;37.904;2023-05-10T05:15:16;101025.84;;;15.49;45.89
78117;BME280;69042;59.120;37.904;2023-05-10T05:17:43;101031.75;;;15.54;45.55
78117;BME280;69042;59.120;37.904;2023-05-10T05:20:09;101026.25;;;15.59;44.95
78117;BME280;69042;59.120;37.904;2023-05-10T05:22:36;101031.31;;;15.64;44.93
78117;BME280;69042;59.120;37.904;2023-05-10T05:25:03;101021.53;;;15.66;44.54
78117;BME280;69042;59.120;37.904;2023-05-10T05:27:29;101025.81;;;15.68;44.38
78117;BME280;69042;59.120;37.904;2023-05-10T05:29:56;101024.88;;;15.69;44.22
78117;BME280;69042;59.120;37.904;2023-05-10T05:32:23;101021.38;;;15.69;43.97
78117;BME280;69042;59.120;37.904;2023-05-10T05:34:49;101012.69;;;15.67;43.77
78117;BME280;69042;59.120;37.904;2023-05-10T05:37:17;101017.78;;;15.71;43.59
78117;BME280;69042;59.120;37.904;2023-05-10T05:39:44;101017.72;;;15.73;43.48
78117;BME280;69042;59.120;37.904;2023-05-10T05:42:11;101015.84;;;15.75;43.19
78117;BME280;69042;59.120;37.904;2023-05-10T05:44:37;101008.72;;;15.77;42.80
78117;BME280;69042;59.120;37.904;2023-05-10T05:47:04;101018.31;;;15.78;43.25
78117;BME280;69042;59.120;37.904;2023-05-10T05:49:30;101011.06;;;15.83;42.88
78117;BME280;69042;59.120;37.904;2023-05-10T05:52:00;101012.59;;;15.87;42.66
78117;BME280;69042;59.120;37.904;2023-05-10T05:54:27;101017.81;;;15.89;42.09
78117;BME280;69042;59.120;37.904;2023-05-10T05:56:57;101011.53;;;15.91;42.07
78117;BME280;69042;59.120;37.904;2023-05-10T05:59:23;101007.75;;;15.97;42.36
78117;BME280;69042;59.120;37.904;2023-05-10T06:01:50;101012.00;;;15.99;42.70
78117;BME280;69042;59.120;37.904;2023-05-10T06:04:16;101004.69;;;16.05;42.46
78117;BME280;69042;59.120;37.904;2023-05-10T06:06:43;101007.72;;;16.14;43.11
78117;BME280;69042;59.120;37.904;2023-05-10T06:09:09;101007.50;;;16.19;43.09
78117;BME280;69042;59.120;37.904;2023-05-10T06:11:36;101006.50;;;16.21;42.72
78117;BME280;69042;59.120;37.904;2023-05-10T06:14:03;101001.22;;;16.21;42.09
78117;BME280;69042;59.120;37.904;2023-05-10T06:16:34;101001.13;;;16.23;41.81
78117;BME280;69042;59.120;37.904;2023-05-10T06:19:01;101002.91;;;16.22;41.18
78117;BME280;69042;59.120;37.904;2023-05-10T06:21:27;101001.13;;;16.23;40.39
78117;BME280;69042;59.120;37.904;2023-05-10T06:23:53;100999.44;;;16.22;39.98
78117;BME280;69042;59.120;37.904;2023-05-10T06:26:19;101004.69;;;16.22;39.74
78117;BME280;69042;59.120;37.904;2023-05-10T06:28:46;101005.63;;;16.21;39.38
78117;BME280;69042;59.120;37.904;2023-05-10T06:31:12;101003.09;;;16.19;39.20
78117;BME280;69042;59.120;37.904;2023-05-10T06:33:38;100997.88;;;16.18;39.14
78117;BME280;69042;59.120;37.904;2023-05-10T06:36:06;100998.97;;;16.14;38.88
78117;BME280;69042;59.120;37.904;2023-05-10T06:38:34;101006.09;;;16.12;38.84
78117;BME280;69042;59.120;37.904;2023-05-10T06:41:00;101000.03;;;16.10;38.79
78117;BME280;69042;59.120;37.904;2023-05-10T06:43:26;101007.22;;;16.08;38.76
78117;BME280;69042;59.120;37.904;2023-05-10T06:45:54;101001.16;;;16.06;38.80
78117;BME280;69042;59.120;37.904;2023-05-10T06:48:20;101000.22;;;16.07;38.85
78117;BME280;69042;59.120;37.904;2023-05-10T06:50:46;100999.38;;;16.06;38.59
78117;BME280;69042;59.120;37.904;2023-05-10T06:53:12;101003.69;;;16.07;38.67
78117;BME280;69042;59.120;37.904;2023-05-10T06:55:39;101001.84;;;16.09;38.62
78117;BME280;69042;59.120;37.904;2023-05-10T06:58:05;101004.41;;;16.11;38.23
78117;BME280;69042;59.120;37.904;2023-05-10T07:00:31;101005.97;;;16.15;38.03
78117;BME280;69042;59.120;37.904;2023-05-10T07:02:57;100992.59;;;16.18;37.41
78117;BME280;69042;59.120;37.904;2023-05-10T07:05:24;100994.22;;;16.20;36.69
78117;BME280;69042;59.120;37.904;2023-05-10T07:07:50;101002.00;;;16.23;36.24
78117;BME280;69042;59.120;37.904;2023-05-10T07:10:17;100996.50;;;16.28;36.01
78117;BME280;69042;59.120;37.904;2023-05-10T07:12:43;100989.19;;;16.33;35.30
78117;BME280;69042;59.120;37.904;2023-05-10T07:15:09;100990.19;;;16.31;35.07
78117;BME280;69042;59.120;37.904;2023-05-10T07:17:36;100998.19;;;16.29;35.09
78117;BME280;69042;59.120;37.904;2023-05-10T07:20:02;100992.00;;;16.30;34.78
78117;BME280;69042;59.120;37.904;2023-05-10T07:22:29;100997.25;;;16.30;34.23
78117;BME280;69042;59.120;37.904;2023-05-10T07:24:55;100986.91;;;16.26;34.29
78117;BME280;69042;59.120;37.904;2023-05-10T07:27:21;100995.72;;;16.26;34.31
78117;BME280;69042;59.120;37.904;2023-05-10T07:29:47;100992.13;;;16.27;34.47
78117;BME280;69042;59.120;37.904;2023-05-10T07:32:14;100992.84;;;16.31;34.22
78117;BME280;69042;59.120;37.904;2023-05-10T07:34:40;100990.97;;;16.33;33.91
78117;BME280;69042;59.120;37.904;2023-05-10T07:37:06;100985.59;;;16.34;33.63
78117;BME280;69042;59.120;37.904;2023-05-10T07:39:33;100987.31;;;16.35;33.73
78117;BME280;69042;59.120;37.904;2023-05-10T07:41:59;100989.78;;;16.38;33.87
78117;BME280;69042;59.120;37.904;2023-05-10T07:44:25;100992.19;;;16.43;33.74
78117;BME280;69042;59.120;37.904;2023-05-10T07:46:52;100987.44;;;16.50;33.67
78117;BME280;69042;59.120;37.904;2023-05-10T07:49:18;100983.63;;;16.55;33.29
78117;BME280;69042;59.120;37.904;2023-05-10T07:51:44;100983.38;;;16.60;32.90
78117;BME280;69042;59.120;37.904;2023-05-10T07:54:10;100986.56;;;16.67;32.23
78117;BME280;69042;59.120;37.904;2023-05-10T07:56:38;100984.50;;;16.72;32.12
78117;BME280;69042;59.120;37.904;2023-05-10T07:59:05;100980.66;;;16.77;31.03
78117;BME280;69042;59.120;37.904;2023-05-10T08:01:33;100976.06;;;16.82;30.39
78117;BME280;69042;59.120;37.904;2023-05-10T08:04:00;100969.75;;;16.85;30.15
78117;BME280;69042;59.120;37.904;2023-05-10T08:06:26;100961.75;;;16.87;30.12
78117;BME280;69042;59.120;37.904;2023-05-10T08:08:53;100966.53;;;16.96;30.61
78117;BME280;69042;59.120;37.904;2023-05-10T08:11:20;100965.31;;;17.01;30.88
78117;BME280;69042;59.120;37.904;2023-05-10T08:13:48;100969.56;;;17.04;30.70
78117;BME280;69042;59.120;37.904;2023-05-10T08:16:14;100974.69;;;17.07;30.69
78117;BME280;69042;59.120;37.904;2023-05-10T08:18:41;100963.13;;;17.10;30.54
78117;BME280;69042;59.120;37.904;2023-05-10T08:21:07;100971.81;;;17.12;30.23
78117;BME280;69042;59.120;37.904;2023-05-10T08:23:33;100965.56;;;17.13;30.52
78117;BME280;69042;59.120;37.904;2023-05-10T08:26:00;100964.66;;;17.14;30.31
78117;BME280;69042;59.120;37.904;2023-05-10T08:28:26;100963.63;;;17.16;30.29
78117;BME280;69042;59.120;37.904;2023-05-10T08:30:53;100959.97;;;17.19;30.08
78117;BME280;69042;59.120;37.904;2023-05-10T08:33:19;100957.31;;;17.19;30.45
78117;BME280;69042;59.120;37.904;2023-05-10T08:35:45;100949.47;;;17.17;30.34
78117;BME280;69042;59.120;37.904;2023-05-10T08:38:11;100953.13;;;17.15;30.35
78117;BME280;69042;59.120;37.904;2023-05-10T08:40:41;100950.50;;;17.15;30.37
78117;BME280;69042;59.120;37.904;2023-05-10T08:43:10;100953.91;;;17.17;30.54
78117;BME280;69042;59.120;37.904;2023-05-10T08:45:38;100946.81;;;17.17;30.48
78117;BME280;69042;59.120;37.904;2023-05-10T08:48:06;100948.38;;;17.21;30.70
78117;BME280;69042;59.120;37.904;2023-05-10T08:50:36;100951.84;;;17.22;30.36
78117;BME280;69042;59.120;37.904;2023-05-10T08:53:06;100942.06;;;17.24;30.53
78117;BME280;69042;59.120;37.904;2023-05-10T08:55:35;100939.25;;;17.27;30.69
78117;BME280;69042;59.120;37.904;2023-05-10T08:58:06;100941.44;;;17.35;30.71
78117;BME280;69042;59.120;37.904;2023-05-10T09:00:33;100938.34;;;17.42;30.79
78117;BME280;69042;59.120;37.904;2023-05-10T09:03:00;100940.56;;;17.50;30.74
78117;BME280;69042;59.120;37.904;2023-05-10T09:05:27;100933.91;;;17.59;30.41
78117;BME280;69042;59.120;37.904;2023-05-10T09:07:53;100929.13;;;17.65;30.40
78117;BME280;69042;59.120;37.904;2023-05-10T09:10:20;100928.56;;;17.75;30.35
78117;BME280;69042;59.120;37.904;2023-05-10T09:12:48;100926.34;;;17.83;30.00
78117;BME280;69042;59.120;37.904;2023-05-10T09:15:18;100926.06;;;17.87;30.31
78117;BME280;69042;59.120;37.904;2023-05-10T09:17:46;100919.56;;;17.93;30.03
78117;BME280;69042;59.120;37.904;2023-05-10T09:20:13;100920.41;;;17.94;30.08
78117;BME280;69042;59.120;37.904;2023-05-10T09:22:39;100924.84;;;17.93;30.05
78117;BME280;69042;59.120;37.904;2023-05-10T09:27:33;100916.09;;;17.93;30.28
78117;BME280;69042;59.120;37.904;2023-05-10T09:29:59;100915.97;;;17.94;30.11
78117;BME280;69042;59.120;37.904;2023-05-10T09:37:33;100912.41;;;17.95;29.92
78117;BME280;69042;59.120;37.904;2023-05-10T09:39:59;100911.44;;;17.96;30.09
78117;BME280;69042;59.120;37.904;2023-05-10T09:42:26;100901.53;;;18.00;29.97
78117;BME280;69042;59.120;37.904;2023-05-10T09:44:52;100892.56;;;18.02;30.39
78117;BME280;69042;59.120;37.904;2023-05-10T09:47:18;100900.13;;;18.08;30.89
78117;BME280;69042;59.120;37.904;2023-05-10T09:49:50;100895.22;;;18.17;30.36
78117;BME280;69042;59.120;37.904;2023-05-10T09:52:23;100898.34;;;18.23;30.31
78117;BME280;69042;59.120;37.904;2023-05-10T09:54:53;100893.03;;;18.23;30.57
78117;BME280;69042;59.120;37.904;2023-05-10T09:57:23;100893.16;;;18.22;30.19
78117;BME280;69042;59.120;37.904;2023-05-10T09:59:50;100892.28;;;18.21;30.22
78117;BME280;69042;59.120;37.904;2023-05-10T10:02:16;100885.50;;;18.17;30.07
78117;BME280;69042;59.120;37.904;2023-05-10T10:04:42;100884.63;;;18.17;30.48
78117;BME280;69042;59.120;37.904;2023-05-10T10:07:09;100893.25;;;18.20;30.32
78117;BME280;69042;59.120;37.904;2023-05-10T10:09:35;100882.47;;;18.23;30.93
78117;BME280;69042;59.120;37.904;2023-05-10T10:12:02;100877.56;;;18.31;30.54
78117;BME280;69042;59.120;37.904;2023-05-10T10:14:28;100882.47;;;18.38;30.37
78117;BME280;69042;59.120;37.904;2023-05-10T10:16:55;100875.38;;;18.38;30.43
78117;BME280;69042;59.120;37.904;2023-05-10T10:19:22;100875.28;;;18.40;30.29
78117;BME280;69042;59.120;37.904;2023-05-10T10:21:49;100876.88;;;18.42;30.06
78117;BME280;69042;59.120;37.904;2023-05-10T10:24:16;100874.78;;;18.47;29.94
78117;BME280;69042;59.120;37.904;2023-05-10T10:26:42;100875.47;;;18.51;30.02
78117;BME280;69042;59.120;37.904;2023-05-10T10:29:21;100871.66;;;18.55;29.84
78117;BME280;69042;59.120;37.904;2023-05-10T10:32:21;100872.22;;;18.60;29.91
78117;BME280;69042;59.120;37.904;2023-05-10T10:34:48;100873.25;;;18.72;30.07
78117;BME280;69042;59.120;37.904;2023-05-10T10:37:14;100866.25;;;18.85;30.09
78117;BME280;69042;59.120;37.904;2023-05-10T10:39:40;100873.38;;;18.98;30.17
78117;BME280;69042;59.120;37.904;2023-05-10T10:42:06;100873.72;;;19.06;29.97
78117;BME280;69042;59.120;37.904;2023-05-10T10:52:27;100867.78;;;19.42;29.42
78117;BME280;69042;59.120;37.904;2023-05-10T10:54:59;100868.97;;;19.51;29.22
78117;BME280;69042;59.120;37.904;2023-05-10T10:57:27;100867.75;;;19.69;29.36
78117;BME280;69042;59.120;37.904;2023-05-10T11:00:25;100857.78;;;19.99;28.99
78117;BME280;69042;59.120;37.904;2023-05-10T11:07:56;100852.13;;;21.03;28.24
78117;BME280;69042;59.120;37.904;2023-05-10T11:10:24;100843.13;;;21.40;28.48
78117;BME280;69042;59.120;37.904;2023-05-10T11:12:59;100842.97;;;21.89;27.89
78117;BME280;69042;59.120;37.904;2023-05-10T11:15:48;100834.41;;;22.30;27.41
78117;BME280;69042;59.120;37.904;2023-05-10T11:18:20;100836.25;;;22.73;26.81
78117;BME280;69042;59.120;37.904;2023-05-10T11:20:56;100837.56;;;23.22;26.34
78117;BME280;69042;59.120;37.904;2023-05-10T11:23:23;100836.53;;;23.56;26.19
78117;BME280;69042;59.120;37.904;2023-05-10T11:25:49;100837.13;;;23.80;26.11
78117;BME280;69042;59.120;37.904;2023-05-10T11:28:19;100825.72;;;24.09;25.92
78117;BME280;69042;59.120;37.904;2023-05-10T11:30:45;100820.53;;;24.67;26.09
78117;BME280;69042;59.120;37.904;2023-05-10T11:33:16;100810.84;;;25.54;24.99
78117;BME280;69042;59.120;37.904;2023-05-10T11:35:43;100816.09;;;26.48;24.40
78117;BME280;69042;59.120;37.904;2023-05-10T11:38:10;100829.63;;;27.28;23.67
78117;BME280;69042;59.120;37.904;2023-05-10T11:40:37;100811.28;;;27.68;23.18
78117;BME280;69042;59.120;37.904;2023-05-10T11:43:04;100820.34;;;27.40;22.29
78117;BME280;69042;59.120;37.904;2023-05-10T11:45:34;100810.97;;;27.27;22.59
78117;BME280;69042;59.120;37.904;2023-05-10T11:48:02;100823.06;;;27.23;22.47
78117;BME280;69042;59.120;37.904;2023-05-10T11:50:28;100816.97;;;26.67;22.21
78117;BME280;69042;59.120;37.904;2023-05-10T11:52:55;100825.63;;;26.33;22.89
78117;BME280;69042;59.120;37.904;2023-05-10T11:55:22;100813.16;;;26.87;22.88
78117;BME280;69042;59.120;37.904;2023-05-10T11:57:54;100817.91;;;27.81;22.34
78117;BME280;69042;59.120;37.904;2023-05-10T12:00:20;100810.84;;;28.57;21.95
78117;BME280;69042;59.120;37.904;2023-05-10T12:02:47;100800.28;;;29.38;21.45
78117;BME280;69042;59.120;37.904;2023-05-10T12:05:14;100797.91;;;30.15;20.66
78117;BME280;69042;59.120;37.904;2023-05-10T12:07:40;100798.41;;;30.73;19.92
78117;BME280;69042;59.120;37.904;2023-05-10T12:10:08;100789.50;;;31.19;19.86
78117;BME280;69042;59.120;37.904;2023-05-10T12:12:37;100784.97;;;31.79;19.52
78117;BME280;69042;59.120;37.904;2023-05-10T12:15:04;100783.41;;;32.35;18.94
78117;BME280;69042;59.120;37.904;2023-05-10T12:17:32;100774.44;;;32.71;18.23
78117;BME280;69042;59.120;37.904;2023-05-10T12:20:20;100770.09;;;32.98;18.29
78117;BME280;69042;59.120;37.904;2023-05-10T12:22:50;100771.56;;;33.23;17.94
78117;BME280;69042;59.120;37.904;2023-05-10T12:25:18;100765.16;;;33.58;17.83
78117;BME280;69042;59.120;37.904;2023-05-10T12:27:57;100759.50;;;33.95;18.09
78117;BME280;69042;59.120;37.904;2023-05-10T12:30:24;100775.53;;;34.38;17.73
78117;BME280;69042;59.120;37.904;2023-05-10T12:32:51;100755.00;;;34.15;16.92
78117;BME280;69042;59.120;37.904;2023-05-10T12:35:18;100761.94;;;33.76;16.95
78117;BME280;69042;59.120;37.904;2023-05-10T12:37:47;100753.28;;;33.59;16.92
78117;BME280;69042;59.120;37.904;2023-05-10T12:40:14;100756.53;;;33.83;17.05
78117;BME280;69042;59.120;37.904;2023-05-10T12:42:40;100750.84;;;34.13;16.91
78117;BME280;69042;59.120;37.904;2023-05-10T12:45:07;100757.56;;;34.24;16.39
78117;BME280;69042;59.120;37.904;2023-05-10T12:47:37;100756.66;;;33.68;16.37
78117;BME280;69042;59.120;37.904;2023-05-10T12:50:04;100757.38;;;32.92;16.39
78117;BME280;69042;59.120;37.904;2023-05-10T12:52:31;100754.00;;;32.11;17.11
78117;BME280;69042;59.120;37.904;2023-05-10T12:55:00;100751.59;;;31.27;17.68
78117;BME280;69042;59.120;37.904;2023-05-10T12:57:27;100754.69;;;30.86;17.60
78117;BME280;69042;59.120;37.904;2023-05-10T12:59:54;100753.28;;;31.28;17.74
78117;BME280;69042;59.120;37.904;2023-05-10T13:02:20;100751.72;;;31.93;17.37
